Time;durP1;ratioP1;P1;durP2;ratioP2;P2;SDS_P1;SDS_P2;PMS_P1;PMS_P2;Temp;Humidity;BMP_temperature;BMP_pressure;BME280_temperature;BME280_humidity;BME280_pressure;Samples;Min_cycle;Max_cycle;Signal;HPM_P1;HPM_P2
2022/07/27 00:01:03;;;;;;;9.57;8.23;;;24.00;99.90;;;;;;5021786;28;20031;-52
2022/07/27 00:03:29;;;;;;;11.85;9.25;;;24.00;99.90;;;;;;5054365;28;20044;-52
2022/07/27 00:05:55;;;;;;;10.65;9.68;;;24.00;99.90;;;;;;5090848;28;20085;-52
2022/07/27 00:08:22;;;;;;;12.55;11.25;;;24.00;99.90;;;;;;5090421;28;20484;-52
2022/07/27 00:10:49;;;;;;;14.43;11.02;;;24.00;99.90;;;;;;5090150;28;20035;-52
2022/07/27 00:13:15;;;;;;;12.82;11.52;;;24.00;99.90;;;;;;5090067;28;20434;-52
2022/07/27 00:15:41;;;;;;;15.05;13.55;;;24.40;99.90;;;;;;5090642;28;20596;-52
2022/07/27 00:18:07;;;;;;;17.83;15.30;;;24.00;99.90;;;;;;5037875;28;20039;-53
2022/07/27 00:20:33;;;;;;;16.67;13.77;;;24.00;99.90;;;;;;5090243;28;20097;-53
2022/07/27 00:22:59;;;;;;;15.27;12.07;;;24.10;99.90;;;;;;5050253;28;20032;-53
2022/07/27 00:25:28;;;;;;;9.23;8.00;;;24.00;99.90;;;;;;5090535;28;20053;-52
2022/07/27 00:27:56;;;;;;;10.32;7.07;;;24.10;99.90;;;;;;5090011;28;20165;-53
2022/07/27 00:30:22;;;;;;;10.70;7.65;;;24.00;99.90;;;;;;5037563;28;20066;-53
2022/07/27 00:32:48;;;;;;;8.55;6.75;;;24.10;99.90;;;;;;5090494;28;20056;-53
2022/07/27 00:35:14;;;;;;;8.85;7.22;;;24.10;99.90;;;;;;5052095;28;20615;-52
2022/07/27 00:37:40;;;;;;;8.52;7.15;;;24.00;99.90;;;;;;5089749;28;20051;-53
2022/07/27 00:40:07;;;;;;;9.55;7.25;;;23.80;99.90;;;;;;5089858;28;20111;-53
2022/07/27 00:42:33;;;;;;;9.07;7.35;;;24.10;99.90;;;;;;5004477;28;20181;-53
2022/07/27 00:44:58;;;;;;;9.15;6.60;;;23.80;99.90;;;;;;5090313;28;20530;-52
2022/07/27 00:47:25;;;;;;;7.85;6.90;;;24.00;99.90;;;;;;5089850;28;20051;-53
2022/07/27 00:49:51;;;;;;;7.80;6.28;;;24.00;99.90;;;;;;5089968;28;20024;-52
2022/07/27 00:52:17;;;;;;;7.32;6.63;;;24.00;99.90;;;;;;5037414;28;20793;-53
2022/07/27 00:54:44;;;;;;;9.45;6.60;;;23.80;99.90;;;;;;5090132;28;20030;-52
2022/07/27 00:57:11;;;;;;;9.60;7.00;;;24.00;99.90;;;;;;5091014;28;20032;-53
2022/07/27 00:59:37;;;;;;;7.43;6.40;;;24.00;99.90;;;;;;5091123;28;20039;-53
2022/07/27 01:02:04;;;;;;;8.25;6.60;;;23.90;99.90;;;;;;5093189;28;20100;-52
2022/07/27 01:04:30;;;;;;;9.60;6.75;;;23.90;99.90;;;;;;5093554;28;20488;-52
2022/07/27 01:06:56;;;;;;;11.98;7.03;;;23.90;99.90;;;;;;5093185;28;20073;-53
2022/07/27 01:12:18;;;;;;;7.80;7.07;;;23.90;99.90;;;;;;5009550;28;20049;-52
2022/07/27 01:14:44;;;;;;;8.20;6.95;;;23.40;99.90;;;;;;5005683;28;20460;-52
2022/07/27 01:17:10;;;;;;;8.15;6.80;;;23.70;99.90;;;;;;4991208;28;20478;-53
2022/07/27 01:19:36;;;;;;;10.27;7.55;;;23.30;99.90;;;;;;4977345;28;20114;-52
2022/07/27 01:22:03;;;;;;;8.52;7.30;;;23.80;99.90;;;;;;5008545;28;20456;-52
2022/07/27 01:24:29;;;;;;;9.65;7.05;;;23.50;99.90;;;;;;5004196;28;20034;-53
2022/07/27 01:26:55;;;;;;;9.95;6.75;;;23.80;99.90;;;;;;5008074;28;20509;-52
2022/07/27 01:29:20;;;;;;;10.25;7.75;;;23.80;99.90;;;;;;5008929;28;20056;-52
2022/07/27 01:31:47;;;;;;;7.60;6.90;;;23.70;99.90;;;;;;5008259;28;20112;-52
2022/07/27 01:34:12;;;;;;;9.57;7.80;;;23.60;99.90;;;;;;5003271;28;20077;-52
2022/07/27 01:36:38;;;;;;;10.93;7.45;;;23.50;99.90;;;;;;5007476;28;20133;-52
2022/07/27 01:39:04;;;;;;;7.88;7.10;;;22.80;99.90;;;;;;5008160;28;20109;-52
2022/07/27 01:41:30;;;;;;;9.45;7.43;;;;;;;;;;5006910;28;20097;-52
2022/07/27 01:43:56;;;;;;;10.88;7.53;;;;;;;;;;5006998;28;20150;-52
2022/07/27 01:46:22;;;;;;;11.68;7.85;;;;;;;;;;4978314;28;20030;-52
2022/07/27 01:48:48;;;;;;;9.88;8.13;;;23.50;99.90;;;;;;5057794;28;20067;-53
2022/07/27 01:51:14;;;;;;;10.13;7.38;;;23.60;99.90;;;;;;5084360;28;20059;-51
2022/07/27 01:53:40;;;;;;;10.00;7.38;;;23.50;99.90;;;;;;5087967;28;20035;-51
2022/07/27 01:56:10;;;;;;;9.65;7.53;;;23.50;99.90;;;;;;5082726;28;20157;-52
2022/07/27 01:58:38;;;;;;;12.25;8.38;;;23.50;99.90;;;;;;5071355;28;20040;-52
2022/07/27 02:01:05;;;;;;;11.35;7.88;;;23.60;99.90;;;;;;5084285;28;20020;-52
2022/07/27 02:03:32;;;;;;;10.23;7.95;;;23.50;99.90;;;;;;5084415;28;20059;-52
2022/07/27 02:05:57;;;;;;;11.77;7.85;;;23.60;99.90;;;;;;5085785;28;20036;-53
2022/07/27 02:08:23;;;;;;;11.35;8.00;;;23.50;99.90;;;;;;5088362;28;20016;-52
2022/07/27 02:13:34;;;;;;;8.75;7.88;;;23.60;99.90;;;;;;5086627;28;20034;-53
2022/07/27 02:16:00;;;;;;;10.18;8.05;;;23.70;99.90;;;;;;5086307;28;20107;-52
2022/07/27 02:18:26;;;;;;;10.90;8.10;;;23.60;99.90;;;;;;5089231;28;20036;-52
2022/07/27 02:20:52;;;;;;;10.05;8.13;;;23.60;99.90;;;;;;5085880;28;20038;-52
2022/07/27 02:23:18;;;;;;;11.35;8.90;;;23.90;99.90;;;;;;5084381;28;20518;-53
2022/07/27 02:25:44;;;;;;;11.50;8.23;;;23.90;99.90;;;;;;5085303;28;20028;-51
2022/07/27 02:28:10;;;;;;;9.35;6.93;;;23.60;99.90;;;;;;5048046;28;20036;-52
2022/07/27 02:30:36;;;;;;;11.10;9.00;;;23.50;99.90;;;;;;5084352;28;20471;-52
2022/07/27 02:33:02;;;;;;;12.10;8.20;;;23.50;99.90;;;;;;5085960;28;20048;-53
2022/07/27 02:35:28;;;;;;;12.27;8.45;;;23.50;99.90;;;;;;5083658;28;20103;-52
2022/07/27 02:37:54;;;;;;;10.55;8.20;;;23.40;99.90;;;;;;5088298;28;20372;-51
2022/07/27 02:40:20;;;;;;;11.23;8.35;;;23.40;99.90;;;;;;5084874;28;20032;-51
2022/07/27 02:42:46;;;;;;;10.13;8.77;;;23.30;99.90;;;;;;5085028;28;20043;-52
2022/07/27 02:45:13;;;;;;;11.93;8.82;;;23.30;99.90;;;;;;5083278;28;20028;-53
2022/07/27 02:47:39;;;;;;;10.82;9.15;;;23.30;99.90;;;;;;5087647;28;20040;-52
2022/07/27 02:50:05;;;;;;;12.75;9.20;;;23.30;99.90;;;;;;5091355;28;20034;-51
2022/07/27 02:52:32;;;;;;;12.25;9.18;;;23.40;99.90;;;;;;5091705;28;20027;-52
2022/07/27 02:54:57;;;;;;;10.25;9.00;;;23.30;99.90;;;;;;5091434;28;20031;-53
2022/07/27 02:57:23;;;;;;;10.65;8.73;;;23.30;99.90;;;;;;5091301;28;20016;-52
2022/07/27 02:59:49;;;;;;;11.07;9.38;;;23.30;99.90;;;;;;5091292;28;20020;-53
2022/07/27 03:02:15;;;;;;;10.15;9.02;;;23.20;99.90;;;;;;5072283;28;20036;-52
2022/07/27 03:04:41;;;;;;;11.73;8.98;;;;;;;;;;5091575;28;20028;-52
2022/07/27 03:07:07;;;;;;;11.95;8.52;;;;;;;;;;5091941;28;20035;-52
2022/07/27 03:09:34;;;;;;;10.73;9.48;;;23.10;99.90;;;;;;5091281;28;20057;-52
2022/07/27 03:12:01;;;;;;;10.32;8.95;;;23.00;99.90;;;;;;5091079;28;20444;-52
2022/07/27 03:14:27;;;;;;;11.75;9.10;;;;;;;;;;5091314;28;20060;-52
2022/07/27 03:16:53;;;;;;;12.23;9.85;;;;;;;;;;5092051;28;20020;-51
2022/07/27 03:19:19;;;;;;;10.57;9.48;;;23.10;99.90;;;;;;5054789;28;20052;-51
2022/07/27 03:21:45;;;;;;;13.90;10.30;;;23.00;99.90;;;;;;5035493;28;20089;-51
2022/07/27 03:24:10;;;;;;;10.18;9.15;;;23.00;99.90;;;;;;5091515;28;20098;-52
2022/07/27 03:26:36;;;;;;;10.93;9.25;;;23.00;99.90;;;;;;5091509;28;20024;-51
2022/07/27 03:29:02;;;;;;;13.55;9.38;;;23.10;99.90;;;;;;5091124;28;20141;-51
2022/07/27 03:31:28;;;;;;;9.50;8.52;;;23.10;99.90;;;;;;5054973;28;20035;-51
2022/07/27 03:33:54;;;;;;;12.48;9.82;;;23.00;99.90;;;;;;5090885;28;20031;-51
2022/07/27 03:36:20;;;;;;;12.20;9.50;;;23.00;99.90;;;;;;5054683;28;20039;-51
2022/07/27 03:38:46;;;;;;;12.38;10.25;;;23.00;99.90;;;;;;5090912;28;20123;-51
2022/07/27 03:41:12;;;;;;;11.52;9.43;;;22.90;99.90;;;;;;5090875;28;20463;-53
2022/07/27 03:43:37;;;;;;;11.20;9.95;;;22.90;99.90;;;;;;5037582;28;20849;-51
2022/07/27 03:46:03;;;;;;;11.73;9.48;;;23.00;99.90;;;;;;5091785;28;20028;-52
2022/07/27 03:48:29;;;;;;;15.30;10.23;;;23.00;99.90;;;;;;5089839;28;20051;-52
2022/07/27 03:51:14;;;;;;;11.00;9.73;;;23.00;99.90;;;;;;5091680;28;20085;-51
2022/07/27 03:53:39;;;;;;;11.80;10.20;;;23.10;99.90;;;;;;5090451;28;20039;-51
2022/07/27 03:56:05;;;;;;;11.23;10.02;;;23.20;99.90;;;;;;5090737;28;20016;-52
2022/07/27 03:58:31;;;;;;;14.18;10.30;;;23.00;99.90;;;;;;5090047;28;20036;-52
2022/07/27 04:00:57;;;;;;;12.85;10.57;;;23.00;99.90;;;;;;5089063;28;20701;-52
2022/07/27 04:03:22;;;;;;;13.85;10.52;;;23.00;99.90;;;;;;5036802;28;20043;-52
2022/07/27 04:05:48;;;;;;;12.45;11.13;;;23.10;99.90;;;;;;5088380;28;20085;-52
2022/07/27 04:08:16;;;;;;;11.32;9.93;;;23.10;99.90;;;;;;5003667;28;20136;-52
2022/07/27 04:10:42;;;;;;;15.60;10.80;;;23.10;99.90;;;;;;5026605;28;20047;-51
2022/07/27 04:13:09;;;;;;;12.75;10.27;;;23.10;99.90;;;;;;5026850;28;20093;-52
2022/07/27 04:15:35;;;;;;;22.60;11.35;;;23.10;99.90;;;;;;4979006;28;20045;-51
2022/07/27 04:18:01;;;;;;;12.75;10.40;;;23.10;99.90;;;;;;4977723;28;20046;-51
2022/07/27 04:20:27;;;;;;;10.48;9.38;;;23.10;99.90;;;;;;5028156;28;20021;-52
2022/07/27 04:22:53;;;;;;;11.98;10.02;;;23.10;99.90;;;;;;5027643;28;20532;-51
2022/07/27 04:25:18;;;;;;;11.18;10.02;;;23.20;99.90;;;;;;5027426;28;20030;-51
2022/07/27 04:27:44;;;;;;;11.30;10.10;;;23.10;99.90;;;;;;4978600;28;20040;-52
2022/07/27 04:30:10;;;;;;;13.00;9.60;;;23.20;99.90;;;;;;4978949;28;20033;-51
2022/07/27 04:32:37;;;;;;;13.10;10.07;;;23.20;99.90;;;;;;5030818;28;20116;-52
2022/07/27 04:35:03;;;;;;;15.48;9.93;;;23.20;99.90;;;;;;5030448;28;20045;-53
2022/07/27 04:37:30;;;;;;;13.90;10.43;;;23.30;99.90;;;;;;4997624;28;20029;-51
2022/07/27 04:39:57;;;;;;;12.07;10.38;;;23.30;99.90;;;;;;5078939;28;20471;-51
2022/07/27 04:42:22;;;;;;;11.07;9.93;;;23.30;99.90;;;;;;5093935;28;20119;-51
2022/07/27 04:44:48;;;;;;;12.70;8.85;;;23.40;99.90;;;;;;5091386;28;20585;-52
2022/07/27 04:47:14;;;;;;;11.60;9.55;;;23.50;99.90;;;;;;5089642;28;20055;-52
2022/07/27 04:49:40;;;;;;;11.30;9.88;;;23.50;99.90;;;;;;5091161;28;20102;-52
2022/07/27 04:52:06;;;;;;;11.07;9.73;;;23.50;99.90;;;;;;5092929;28;20058;-55
2022/07/27 04:54:32;;;;;;;13.55;10.35;;;23.50;99.90;;;;;;5092846;28;20522;-51
2022/07/27 04:56:57;;;;;;;13.60;10.52;;;23.50;99.90;;;;;;5092914;28;20024;-52
2022/07/27 04:59:23;;;;;;;12.77;10.88;;;23.60;99.90;;;;;;5055862;28;21542;-51
2022/07/27 05:01:49;;;;;;;15.07;10.48;;;23.60;99.90;;;;;;5092599;28;20103;-52
2022/07/27 05:04:15;;;;;;;16.15;10.02;;;23.60;99.90;;;;;;5089290;28;20028;-53
2022/07/27 05:06:40;;;;;;;13.02;11.40;;;23.70;99.90;;;;;;5093067;28;20024;-51
2022/07/27 05:09:06;;;;;;;12.93;9.88;;;23.80;99.90;;;;;;5093740;28;20046;-50
2022/07/27 05:11:32;;;;;;;14.20;11.52;;;23.80;99.90;;;;;;5092868;28;20035;-51
2022/07/27 05:13:57;;;;;;;17.23;11.70;;;23.90;99.90;;;;;;5040508;28;22071;-50
2022/07/27 05:16:23;;;;;;;13.98;10.80;;;24.10;99.90;;;;;;5092559;28;20024;-56
2022/07/27 05:18:49;;;;;;;12.40;11.07;;;24.10;99.90;;;;;;5093377;28;20024;-54
2022/07/27 05:21:15;;;;;;;14.73;11.35;;;24.10;99.90;;;;;;5039845;28;20040;-53
2022/07/27 05:23:40;;;;;;;13.57;10.35;;;24.20;99.90;;;;;;5093078;28;20376;-53
2022/07/27 05:26:06;;;;;;;14.65;11.30;;;24.20;99.90;;;;;;5021511;28;20116;-50
2022/07/27 05:28:32;;;;;;;15.30;12.40;;;24.40;99.90;;;;;;5092997;28;21282;-54
2022/07/27 05:30:58;;;;;;;13.52;12.10;;;24.40;99.90;;;;;;5091599;28;20467;-55
2022/07/27 05:33:24;;;;;;;16.27;13.35;;;24.40;99.90;;;;;;5072386;28;20029;-54
2022/07/27 05:35:50;;;;;;;16.40;13.55;;;24.40;99.90;;;;;;5090300;28;20035;-51
2022/07/27 05:38:16;;;;;;;20.17;14.68;;;24.40;99.90;;;;;;5091845;28;20032;-55
2022/07/27 05:40:47;;;;;;;16.58;13.65;;;24.50;99.90;;;;;;5093394;28;20024;-48
2022/07/27 05:43:14;;;;;;;20.25;14.82;;;24.60;99.90;;;;;;5039571;28;20032;-50
2022/07/27 05:46:03;;;;;;;17.27;15.45;;;24.60;99.90;;;;;;5021837;28;20033;-52
2022/07/27 05:48:29;;;;;;;16.35;14.65;;;24.60;99.90;;;;;;5050097;28;20160;-57
2022/07/27 05:50:55;;;;;;;16.95;13.65;;;24.80;99.90;;;;;;5000499;28;20400;-55
2022/07/27 05:53:22;;;;;;;14.85;13.32;;;25.00;99.90;;;;;;5051031;28;20039;-52
2022/07/27 05:56:08;;;;;;;15.77;12.65;;;25.00;99.90;;;;;;4980793;28;20042;-54
2022/07/27 05:58:34;;;;;;;16.75;13.65;;;25.00;99.90;;;;;;5010590;28;20751;-56
2022/07/27 06:01:00;;;;;;;15.70;14.10;;;25.00;99.90;;;;;;4937031;28;20047;-51
2022/07/27 06:03:26;;;;;;;13.93;12.10;;;25.10;99.90;;;;;;4956793;28;20042;-54
2022/07/27 06:07:57;;;;;;;18.48;13.45;;;;;;;;;;4920228;29;20043;-66
2022/07/27 06:08:38;;;;;;;16.20;13.50;;;25.20;99.90;;;;;;4949224;28;20122;-51
2022/07/27 06:11:03;;;;;;;14.63;12.75;;;25.20;99.90;;;;;;4936238;28;20459;-54
2022/07/27 06:13:30;;;;;;;15.07;12.95;;;25.50;99.90;;;;;;4915732;29;20050;-59
2022/07/27 06:15:56;;;;;;;16.27;14.57;;;25.50;99.90;;;;;;4953857;28;20130;-53
2022/07/27 06:18:21;;;;;;;15.90;14.10;;;25.60;99.90;;;;;;4977701;28;20160;-54
2022/07/27 06:20:47;;;;;;;17.75;14.75;;;25.60;99.90;;;;;;4997476;28;20046;-55
2022/07/27 06:23:13;;;;;;;21.17;15.02;;;25.70;99.90;;;;;;4991976;28;20030;-57
2022/07/27 06:25:39;;;;;;;28.70;18.02;;;25.90;99.90;;;;;;4956289;28;20038;-59
2022/07/27 06:28:05;;;;;;;22.85;15.93;;;25.90;99.90;;;;;;4991344;28;20091;-55
2022/07/27 06:30:31;;;;;;;17.15;14.88;;;25.80;99.90;;;;;;4997930;28;20093;-56
2022/07/27 06:32:57;;;;;;;19.80;14.40;;;25.90;99.90;;;;;;5023580;28;20440;-55
2022/07/27 06:35:23;;;;;;;19.17;15.48;;;26.10;99.90;;;;;;5091372;28;20062;-49
2022/07/27 06:37:51;;;;;;;19.40;14.65;;;26.10;99.90;;;;;;5091480;28;20472;-55
2022/07/27 06:40:18;;;;;;;17.38;15.52;;;26.30;99.90;;;;;;5053024;28;20036;-52
2022/07/27 06:42:43;;;;;;;16.25;13.80;;;26.20;99.90;;;;;;5090130;28;20062;-54
2022/07/27 06:45:10;;;;;;;17.52;15.02;;;26.30;99.90;;;;;;5090307;28;20016;-51
2022/07/27 06:47:38;;;;;;;16.30;14.65;;;;;;;;;;5091796;28;20052;-52
2022/07/27 06:50:04;;;;;;;19.05;14.55;;;;;;;;;;5092438;28;20554;-51
2022/07/27 06:52:30;;;;;;;16.67;14.02;;;26.80;99.90;;;;;;5036335;28;20071;-53
2022/07/27 06:54:56;;;;;;;17.17;13.82;;;26.50;99.90;;;;;;5071921;28;20048;-52
2022/07/27 06:57:22;;;;;;;17.33;14.48;;;26.70;99.90;;;;;;5038377;28;20048;-51
2022/07/27 06:59:49;;;;;;;16.00;14.30;;;26.70;99.90;;;;;;5092578;28;20032;-55
2022/07/27 07:02:16;;;;;;;16.27;12.95;;;26.90;99.90;;;;;;5092230;28;20032;-51
2022/07/27 07:04:42;;;;;;;16.95;14.30;;;26.90;99.90;;;;;;5092514;28;20551;-51
2022/07/27 07:07:08;;;;;;;18.63;14.00;;;;;;;;;;5092733;28;20115;-51
2022/07/27 07:09:34;;;;;;;16.45;14.70;;;26.90;99.90;;;;;;5092872;28;20431;-51
2022/07/27 07:12:01;;;;;;;15.95;14.35;;;27.00;99.90;;;;;;5092816;28;20020;-51
2022/07/27 07:14:27;;;;;;;16.60;14.32;;;27.20;99.90;;;;;;5092438;28;20097;-51
2022/07/27 07:16:53;;;;;;;16.65;13.85;;;27.30;99.90;;;;;;5092600;28;20035;-51
2022/07/27 07:19:19;;;;;;;14.55;12.90;;;27.30;99.90;;;;;;5056195;28;20048;-51
2022/07/27 07:21:45;;;;;;;13.85;12.43;;;27.30;99.90;;;;;;5092473;28;20476;-50
2022/07/27 07:24:12;;;;;;;14.75;12.38;;;27.30;99.90;;;;;;5092441;28;20076;-51
2022/07/27 07:26:39;;;;;;;18.52;13.05;;;27.40;99.90;;;;;;5092564;28;20028;-50
2022/07/27 07:29:05;;;;;;;14.63;13.07;;;27.40;99.90;;;;;;5091017;28;20422;-50
2022/07/27 07:31:31;;;;;;;14.73;13.20;;;27.30;99.90;;;;;;5092337;28;20100;-50
2022/07/27 07:33:57;;;;;;;17.98;13.43;;;;;;;;;;5092437;28;20480;-50
2022/07/27 07:36:24;;;;;;;16.65;12.93;;;27.70;99.90;;;;;;5088055;28;20129;-53
2022/07/27 07:38:50;;;;;;;13.68;12.35;;;27.80;99.90;;;;;;5086037;28;20047;-52
2022/07/27 07:41:16;;;;;;;17.63;13.07;;;27.80;99.90;;;;;;5039069;28;20032;-52
2022/07/27 07:43:41;;;;;;;14.32;12.82;;;27.80;99.90;;;;;;5085517;28;20059;-51
2022/07/27 07:46:08;;;;;;;13.60;11.57;;;;;;;;;;5062246;28;20068;-53
2022/07/27 07:48:34;;;;;;;12.77;11.55;;;;;;;;;;5090865;28;20044;-53
2022/07/27 07:51:00;;;;;;;15.38;12.10;;;;;;;;;;5087239;28;20020;-53
2022/07/27 07:53:26;;;;;;;13.02;11.73;;;;;;;;;;5092016;28;20020;-53
2022/07/27 07:55:55;;;;;;;15.73;12.90;;;28.50;99.90;;;;;;5092176;28;20039;-53
2022/07/27 07:58:21;;;;;;;13.43;11.63;;;28.50;99.90;;;;;;5088758;28;20028;-49
2022/07/27 08:00:47;;;;;;;14.63;13.13;;;28.40;99.90;;;;;;5084474;28;20044;-56
2022/07/27 08:03:13;;;;;;;13.68;12.35;;;28.40;99.90;;;;;;5052542;28;20048;-51
2022/07/27 08:05:39;;;;;;;13.60;12.15;;;28.70;99.90;;;;;;5072624;28;20444;-52
2022/07/27 08:08:05;;;;;;;16.10;11.45;;;28.80;99.90;;;;;;5076372;28;20020;-51
2022/07/27 08:10:31;;;;;;;16.08;11.10;;;29.00;99.90;;;;;;5045097;28;20260;-51
2022/07/27 08:12:57;;;;;;;15.25;11.75;;;29.30;99.90;;;;;;5095546;28;20028;-51
2022/07/27 08:15:24;;;;;;;13.70;11.38;;;29.30;99.90;;;;;;5060339;28;20038;-50
2022/07/27 08:17:50;;;;;;;11.30;10.20;;;28.90;99.90;;;;;;5096097;28;20024;-51
2022/07/27 08:20:16;;;;;;;12.35;10.50;;;29.00;99.90;;;;;;5096137;28;20383;-52
2022/07/27 08:22:43;;;;;;;11.70;10.60;;;29.20;99.90;;;;;;5060493;28;20064;-51
2022/07/27 08:25:10;;;;;;;11.60;10.40;;;29.30;99.90;;;;;;5095833;28;20024;-51
2022/07/27 08:27:36;;;;;;;11.98;10.80;;;;;;;;;;5096070;28;20040;-51
2022/07/27 08:30:04;;;;;;;12.52;11.23;;;;;;;;;;5096005;28;20062;-51
2022/07/27 08:32:30;;;;;;;11.60;10.50;;;29.80;99.90;;;;;;5095988;28;20036;-51
2022/07/27 08:34:56;;;;;;;11.85;10.70;;;30.00;99.90;;;;;;5060098;28;20032;-51
2022/07/27 08:37:22;;;;;;;14.45;10.88;;;29.90;99.90;;;;;;5095701;28;20027;-52
2022/07/27 08:39:48;;;;;;;14.80;10.73;;;29.90;99.90;;;;;;5094008;28;20055;-52
2022/07/27 08:42:16;;;;;;;11.80;8.52;;;30.00;99.90;;;;;;5091163;28;20451;-51
2022/07/27 08:44:43;;;;;;;10.55;9.40;;;29.90;99.90;;;;;;5092726;28;20482;-52
2022/07/27 08:47:09;;;;;;;11.07;8.57;;;29.60;99.90;;;;;;5056910;28;20407;-51
2022/07/27 08:49:38;;;;;;;10.60;9.52;;;;;;;;;;5036763;28;20502;-52
2022/07/27 08:52:05;;;;;;;10.63;9.57;;;;;;;;;;5088845;28;20071;-54
2022/07/27 08:54:31;;;;;;;9.75;8.75;;;30.50;99.90;;;;;;5093265;28;20024;-53
2022/07/27 08:56:57;;;;;;;15.57;9.15;;;;;;;;;;5058667;28;20063;-53
2022/07/27 08:59:22;;;;;;;10.15;9.13;;;31.00;99.90;;;;;;5095209;28;20028;-53
2022/07/27 09:01:49;;;;;;;9.65;7.97;;;30.70;99.90;;;;;;5071669;28;20032;-56
2022/07/27 09:04:14;;;;;;;10.43;7.68;;;30.70;99.90;;;;;;5091988;28;20036;-54
2022/07/27 09:06:46;;;;;;;9.57;7.47;;;30.80;99.90;;;;;;5036946;28;20476;-52
2022/07/27 09:09:12;;;;;;;;;;;;;;;;;;5075872;28;20043;-46
2022/07/27 09:11:38;;;;;;;8.93;8.00;;;31.50;99.90;;;;;;5094786;28;19908;-53
2022/07/27 09:14:07;;;;;;;8.48;7.30;;;31.50;99.90;;;;;;5095075;28;20028;-51
2022/07/27 09:16:33;;;;;;;8.85;7.85;;;31.00;99.90;;;;;;5095250;28;20020;-49
2022/07/27 09:19:04;;;;;;;12.18;7.30;;;31.00;99.90;;;;;;5056635;28;20051;-53
2022/07/27 09:21:30;;;;;;;10.38;6.90;;;31.50;99.90;;;;;;5051476;28;20140;-50
2022/07/27 09:24:12;;;;;;;7.50;6.75;;;31.50;99.90;;;;;;5050877;28;20645;-53
2022/07/27 09:26:38;;;;;;;6.80;6.18;;;31.70;99.90;;;;;;5050886;28;20033;-51
2022/07/27 09:29:09;;;;;;;7.80;6.53;;;32.00;98.90;;;;;;5051668;28;20035;-51
2022/07/27 09:31:50;;;;;;;7.85;6.97;;;32.30;98.00;;;;;;5051754;28;20041;-52
2022/07/27 09:34:30;;;;;;;10.27;7.13;;;32.50;98.30;;;;;;5049392;28;20036;-51
2022/07/27 09:36:57;;;;;;;9.10;7.15;;;32.40;97.40;;;;;;5050962;28;20064;-51
2022/07/27 09:39:25;;;;;;;6.70;5.95;;;32.60;96.10;;;;;;5032304;28;20041;-54
2022/07/27 09:41:56;;;;;;;9.98;6.53;;;32.30;95.30;;;;;;5052182;28;20100;-51
2022/07/27 09:44:34;;;;;;;7.97;5.78;;;32.70;95.70;;;;;;5049499;28;20037;-51
2022/07/27 09:47:00;;;;;;;6.25;5.45;;;32.70;94.70;;;;;;5053704;28;20105;-51
2022/07/27 09:49:33;;;;;;;7.75;6.25;;;32.90;94.00;;;;;;5069072;28;20104;-51
2022/07/27 09:52:01;;;;;;;6.78;5.18;;;33.10;93.80;;;;;;5076519;28;20044;-51
2022/07/27 09:54:28;;;;;;;7.63;5.97;;;;;;;;;;5090421;28;20035;-51
2022/07/27 09:56:59;;;;;;;7.75;5.90;;;;;;;;;;5091943;28;20028;-54
2022/07/27 09:59:25;;;;;;;6.85;5.60;;;33.80;99.90;;;;;;5092392;28;20116;-49
2022/07/27 10:01:51;;;;;;;6.32;5.35;;;;;;;;;;5073070;28;21583;-52
2022/07/27 10:04:17;;;;;;;7.57;5.60;;;;;;;;;;5091824;28;20027;-53
2022/07/27 10:06:43;;;;;;;9.80;5.38;;;;;;;;;;5091841;28;20035;-53
2022/07/27 10:09:10;;;;;;;7.72;5.30;;;;;;;;;;5091467;28;20023;-50
2022/07/27 10:11:36;;;;;;;7.63;5.00;;;33.60;91.70;;;;;;5039722;28;20123;-50
2022/07/27 10:14:02;;;;;;;5.20;4.70;;;33.80;91.60;;;;;;5054755;28;20039;-51
2022/07/27 10:16:30;;;;;;;8.57;4.97;;;;;;;;;;5041492;28;20024;-50
2022/07/27 10:19:07;;;;;;;6.22;4.90;;;34.50;94.10;;;;;;5092304;28;20067;-50
2022/07/27 10:21:36;;;;;;;6.57;5.15;;;34.50;89.30;;;;;;5073417;28;20040;-50
2022/07/27 10:24:09;;;;;;;7.55;4.90;;;34.20;90.00;;;;;;5092012;28;20026;-50
2022/07/27 10:26:39;;;;;;;5.78;4.70;;;34.40;89.90;;;;;;5090566;28;20054;-50
2022/07/27 10:29:14;;;;;;;8.00;5.25;;;34.50;88.40;;;;;;5091959;28;20031;-51
2022/07/27 10:31:55;;;;;;;9.02;5.10;;;;;;;;;;5089956;28;20494;-57
2022/07/27 10:34:40;;;;;;;;;;;34.70;87.20;;;;;;5091889;28;20030;-52
2022/07/27 10:37:13;;;;;;;7.65;5.07;;;34.80;86.60;;;;;;5092687;28;20552;-50
2022/07/27 10:39:44;;;;;;;7.55;5.13;;;34.60;88.80;;;;;;5091864;28;20103;-53
2022/07/27 10:42:29;;;;;;;5.32;4.35;;;34.50;88.70;;;;;;5091526;28;20024;-50
2022/07/27 10:44:59;;;;;;;7.85;5.03;;;34.90;86.50;;;;;;5047931;28;20108;-54
2022/07/27 10:47:36;;;;;;;6.30;5.03;;;35.30;85.70;;;;;;5092362;28;20048;-55
2022/07/27 10:50:17;;;;;;;5.63;4.70;;;35.10;86.20;;;;;;5093204;28;20043;-56
2022/07/27 10:53:05;;;;;;;7.93;4.60;;;35.40;86.10;;;;;;5091903;28;20028;-57
2022/07/27 10:55:31;;;;;;;5.28;4.50;;;34.90;83.50;;;;;;5048892;28;20421;-54
2022/07/27 10:58:18;;;;;;;6.10;4.22;;;35.30;82.90;;;;;;5092611;28;20032;-52
2022/07/27 11:00:50;;;;;;;7.28;4.72;;;35.30;85.00;;;;;;5089253;28;20032;-61
2022/07/27 11:03:24;;;;;;;6.75;4.72;;;35.30;83.90;;;;;;5091261;28;20020;-60
2022/07/27 11:05:57;;;;;;;6.85;4.63;;;;;;;;;;5092084;28;20028;-61
2022/07/27 11:08:27;;;;;;;5.47;4.68;;;;;;;;;;5092818;28;20036;-55
2022/07/27 11:10:53;;;;;;;6.18;4.13;;;36.00;81.40;;;;;;5092307;28;20023;-51
2022/07/27 11:13:22;;;;;;;7.57;4.35;;;36.00;81.30;;;;;;4988361;28;20046;-59
2022/07/27 11:16:02;;;;;;;6.03;4.25;;;36.00;81.50;;;;;;5090815;28;20024;-50
2022/07/27 11:18:30;;;;;;;8.05;4.60;;;36.20;79.30;;;;;;5089384;28;20388;-50
2022/07/27 11:21:16;;;;;;;5.38;4.78;;;36.30;79.90;;;;;;5091581;28;20019;-50
2022/07/27 11:23:44;;;;;;;5.85;4.10;;;35.60;80.50;;;;;;5088661;28;20020;-63
2022/07/27 11:26:10;;;;;;;4.90;4.32;;;36.00;80.00;;;;;;5090364;28;20028;-59
2022/07/27 11:28:37;;;;;;;8.07;4.13;;;36.30;80.20;;;;;;5055498;28;20119;-55
2022/07/27 11:31:03;;;;;;;8.40;4.88;;;36.60;80.90;;;;;;5033482;28;20050;-55
2022/07/27 11:33:29;;;;;;;5.88;4.93;;;36.10;80.70;;;;;;5088318;28;20272;-57
2022/07/27 11:35:57;;;;;;;9.50;4.38;;;36.40;80.60;;;;;;5048425;28;20032;-53
2022/07/27 11:38:23;;;;;;;5.53;3.90;;;36.40;80.70;;;;;;5089270;28;20040;-54
2022/07/27 11:40:51;;;;;;;4.68;4.18;;;36.00;80.90;;;;;;5090117;28;20039;-53
2022/07/27 11:43:39;;;;;;;6.78;4.60;;;36.10;79.20;;;;;;5066039;28;20028;-53
2022/07/27 11:46:18;;;;;;;5.22;4.35;;;36.20;78.30;;;;;;5048095;28;20167;-53
2022/07/27 11:48:56;;;;;;;7.28;4.22;;;36.30;78.90;;;;;;5060022;28;20548;-53
2022/07/27 11:51:23;;;;;;;7.03;4.65;;;36.20;88.90;;;;;;5052914;28;20393;-52
2022/07/27 11:53:55;;;;;;;6.45;4.45;;;36.30;86.20;;;;;;5055743;28;20102;-53
2022/07/27 11:56:22;;;;;;;6.47;4.07;;;36.30;85.00;;;;;;5014775;28;20028;-52
2022/07/27 11:59:02;;;;;;;8.27;4.78;;;35.70;81.70;;;;;;5063023;28;20048;-55
2022/07/27 12:01:32;;;;;;;7.03;4.25;;;35.60;92.90;;;;;;5030957;28;20534;-52
2022/07/27 12:04:17;;;;;;;4.95;4.03;;;36.40;86.60;;;;;;5057945;28;20594;-51
2022/07/27 12:07:09;;;;;;;5.28;3.92;;;36.10;85.60;;;;;;5065009;28;20044;-51
2022/07/27 12:09:39;;;;;;;9.18;4.70;;;36.40;80.90;;;;;;5052652;28;20045;-51
2022/07/27 12:12:19;;;;;;;5.50;4.00;;;36.20;78.40;;;;;;5058733;28;20680;-53
2022/07/27 12:14:45;;;;;;;8.73;4.15;;;;;;;;;;5024601;28;20127;-50
2022/07/27 12:17:36;;;;;;;6.97;4.22;;;36.70;78.50;;;;;;5063703;28;20397;-49
2022/07/27 12:20:06;;;;;;;7.40;4.55;;;37.00;78.50;;;;;;5057634;28;20051;-49
2022/07/27 12:22:42;;;;;;;8.50;4.63;;;36.90;77.60;;;;;;5071819;28;20072;-49
2022/07/27 12:25:23;;;;;;;8.75;4.13;;;37.10;77.30;;;;;;5055882;28;20035;-50
2022/07/27 12:28:11;;;;;;;10.52;4.63;;;36.70;77.10;;;;;;5054954;28;20483;-52
2022/07/27 12:30:40;;;;;;;7.78;4.65;;;37.30;77.30;;;;;;5055279;28;20045;-53
2022/07/27 12:33:23;;;;;;;7.65;4.00;;;37.20;76.30;;;;;;5064374;28;20124;-50
2022/07/27 12:35:49;;;;;;;6.35;4.03;;;37.30;77.60;;;;;;5061017;28;20045;-50
2022/07/27 12:38:15;;;;;;;6.05;4.30;;;37.40;76.00;;;;;;5061817;28;20029;-50
2022/07/27 12:40:49;;;;;;;6.47;4.10;;;37.40;75.70;;;;;;5074949;28;20044;-51
2022/07/27 12:43:17;;;;;;;6.75;4.72;;;;;;;;;;5057692;28;20037;-52
2022/07/27 12:45:43;;;;;;;7.38;4.35;;;37.90;76.70;;;;;;5057982;28;20032;-51
2022/07/27 12:48:32;;;;;;;7.70;4.65;;;;;;;;;;5056987;28;20387;-52
2022/07/27 12:51:00;;;;;;;10.73;4.22;;;38.30;96.40;;;;;;5054996;28;20029;-50
2022/07/27 12:53:27;;;;;;;4.93;4.25;;;;;;;;;;5053203;28;20045;-53
2022/07/27 12:56:11;;;;;;;6.05;4.88;;;36.80;74.20;;;;;;5059058;28;20119;-52
2022/07/27 12:58:37;;;;;;;8.27;4.13;;;;;;;;;;5055139;28;20037;-54
2022/07/27 13:01:05;;;;;;;4.68;4.15;;;36.20;73.00;;;;;;5067889;28;20025;-57